Masury, Ohio
Current Conditions -  °F | °C
As of 11:37 PM on Monday 20 Oct 2014 (Local Time) from KYNG Reporting Station
Moderate Rain Moderate Rain  
Wind Chill: 50°   Ceiling: 1200
Heat Index: 50°   Visibility: 4mi
Dew Point: 48°   Wind: 9mph
Humidity: 93%   Direction: 200°SSW
Pressure: 29.85"   Gusts: NA
Location:  41.21°N, 80.54°W
Report Text: KYNG 210337Z 20008KT 4SM RA BR FEW008 OVC012 10/09 A2985 RMK AO2 P0003 T01000089
Loading
Personal Weather Stations






























Interactive Weather Map
Tropical Storm Tracking
New forecast layout! Learn more

10-Day Weather Forecast

Advertisements
Track Severe Weather on mobile